createdAt,value
2023-04-15T00:01:46.095Z,5.86
2023-04-15T00:04:12.478Z,5.71
2023-04-15T00:06:38.889Z,5.98
2023-04-15T00:09:05.787Z,6.38
2023-04-15T00:11:32.109Z,6.13
2023-04-15T00:13:58.419Z,6.16
2023-04-15T00:16:25.040Z,6.10
2023-04-15T00:18:51.361Z,6.44
2023-04-15T00:21:17.663Z,6.53
2023-04-15T00:23:43.976Z,6.53
2023-04-15T00:26:10.283Z,6.47
2023-04-15T00:28:36.595Z,6.52
2023-04-15T00:31:02.974Z,6.49
2023-04-15T00:33:29.313Z,6.45
2023-04-15T00:35:55.611Z,6.36
2023-04-15T00:38:21.899Z,6.29
2023-04-15T00:40:48.211Z,6.02
2023-04-15T00:43:14.542Z,6.30
2023-04-15T00:45:40.914Z,6.11
2023-04-15T00:48:07.458Z,5.91
2023-04-15T00:50:33.771Z,5.82
2023-04-15T00:53:00.143Z,5.91
2023-04-15T00:55:26.460Z,6.24
2023-04-15T00:57:52.886Z,6.40
2023-04-15T01:00:20.527Z,6.41
2023-04-15T01:02:47.036Z,6.39
2023-04-15T01:05:13.573Z,6.37
2023-04-15T01:07:39.881Z,6.34
2023-04-15T01:10:06.984Z,6.31
2023-04-15T01:12:33.528Z,6.25
2023-04-15T01:15:00.133Z,6.24
2023-04-15T01:17:26.517Z,6.03
2023-04-15T01:19:52.966Z,5.77
2023-04-15T01:22:19.268Z,5.89
2023-04-15T01:25:01.302Z,6.08
2023-04-15T01:27:27.938Z,5.81
2023-04-15T01:29:54.260Z,6.17
2023-04-15T01:32:20.559Z,6.24
2023-04-15T01:34:46.889Z,6.12
2023-04-15T01:37:13.402Z,5.88
2023-04-15T01:39:39.741Z,5.90
2023-04-15T01:42:06.067Z,5.77
2023-04-15T01:44:32.373Z,6.08
2023-04-15T01:46:58.760Z,6.21
2023-04-15T01:49:25.107Z,6.20
2023-04-15T01:51:51.406Z,6.20
2023-04-15T01:54:17.776Z,6.15
2023-04-15T01:56:44.077Z,6.25
2023-04-15T01:59:10.402Z,6.23
2023-04-15T02:01:36.745Z,6.22
2023-04-15T02:04:03.163Z,6.13
2023-04-15T02:06:29.540Z,6.15
2023-04-15T02:08:55.856Z,6.14
2023-04-15T02:11:22.164Z,6.19
2023-04-15T02:13:48.481Z,6.11
2023-04-15T02:16:18.831Z,6.14
2023-04-15T02:18:46.263Z,6.08
2023-04-15T02:21:12.972Z,6.09
2023-04-15T02:23:39.270Z,5.89
2023-04-15T02:26:05.577Z,5.89
2023-04-15T02:28:31.867Z,5.99
2023-04-15T02:30:58.152Z,6.04
2023-04-15T02:33:24.480Z,6.05
2023-04-15T02:35:50.797Z,5.99
2023-04-15T02:38:17.118Z,6.01
2023-04-15T02:40:43.604Z,5.99
2023-04-15T02:43:09.900Z,5.92
2023-04-15T02:45:36.309Z,5.91
2023-04-15T02:48:02.688Z,5.93
2023-04-15T02:50:29.025Z,5.84
2023-04-15T02:52:55.338Z,5.77
2023-04-15T02:55:21.754Z,5.79
2023-04-15T02:57:48.077Z,5.76
2023-04-15T03:00:14.533Z,5.75
2023-04-15T03:02:40.995Z,5.75
2023-04-15T03:05:11.764Z,5.76
2023-04-15T03:07:38.072Z,5.79
2023-04-15T03:10:04.753Z,5.77
2023-04-15T03:12:31.089Z,5.82
2023-04-15T03:14:57.422Z,5.81
2023-04-15T03:17:23.796Z,5.77
2023-04-15T03:19:50.224Z,5.80
2023-04-15T03:22:16.520Z,5.82
2023-04-15T03:24:42.847Z,5.82
2023-04-15T03:27:09.151Z,5.83
2023-04-15T03:29:35.515Z,5.75
2023-04-15T03:32:01.844Z,5.73
2023-04-15T03:34:28.160Z,5.74
2023-04-15T03:36:54.452Z,5.78
2023-04-15T03:39:20.764Z,5.76
2023-04-15T03:41:47.077Z,5.72
2023-04-15T03:44:13.407Z,5.65
2023-04-15T03:46:39.735Z,5.66
2023-04-15T03:49:07.164Z,5.57
2023-04-15T03:51:33.624Z,5.64
2023-04-15T03:54:00.104Z,5.54
2023-04-15T03:56:26.454Z,5.41
2023-04-15T03:58:52.794Z,5.48
2023-04-15T04:01:19.386Z,5.48
2023-04-15T04:03:45.837Z,5.48
2023-04-15T04:06:12.314Z,5.47
2023-04-15T04:08:38.628Z,5.46
2023-04-15T04:11:05.148Z,5.42
2023-04-15T04:13:31.436Z,5.32
2023-04-15T04:15:57.825Z,5.34
2023-04-15T04:18:24.192Z,5.31
2023-04-15T04:20:50.585Z,5.29
2023-04-15T04:23:16.945Z,5.12
2023-04-15T04:25:43.245Z,5.12
2023-04-15T04:28:09.669Z,5.14
2023-04-15T04:30:36.136Z,5.15
2023-04-15T04:33:02.563Z,4.96
2023-04-15T04:35:28.925Z,4.88
2023-04-15T04:37:55.231Z,4.90
2023-04-15T04:40:21.544Z,4.96
2023-04-15T04:42:47.944Z,5.07
2023-04-15T04:45:14.266Z,5.32
2023-04-15T04:47:40.593Z,5.43
2023-04-15T04:50:07.624Z,5.33
2023-04-15T04:52:33.949Z,5.38
2023-04-15T04:55:00.238Z,5.32
2023-04-15T04:57:26.542Z,5.37
2023-04-15T04:59:52.920Z,5.40
2023-04-15T05:02:19.318Z,5.43
2023-04-15T05:04:45.736Z,5.43
2023-04-15T05:07:12.044Z,5.45
2023-04-15T05:09:38.344Z,5.47
2023-04-15T05:12:04.927Z,5.60
2023-04-15T05:14:31.236Z,5.60
2023-04-15T05:16:57.674Z,5.67
2023-04-15T05:19:23.970Z,5.60
2023-04-15T05:21:50.363Z,5.62
2023-04-15T05:24:16.693Z,5.64
2023-04-15T05:26:43.041Z,5.68
2023-04-15T05:29:09.441Z,5.74
2023-04-15T05:31:36.544Z,5.80
2023-04-15T05:34:02.883Z,5.69
2023-04-15T05:36:29.196Z,5.80
2023-04-15T05:38:55.573Z,5.97
2023-04-15T05:41:22.000Z,5.87
2023-04-15T05:43:48.317Z,5.95
2023-04-15T05:46:14.718Z,5.81
2023-04-15T05:48:41.074Z,5.73
2023-04-15T05:51:07.369Z,5.78
2023-04-15T05:53:33.691Z,5.86
2023-04-15T05:56:00.007Z,5.90
2023-04-15T05:58:26.334Z,5.94
2023-04-15T06:00:52.919Z,5.99
2023-04-15T06:03:19.389Z,5.98
2023-04-15T06:05:45.761Z,6.01
2023-04-15T06:08:12.088Z,5.97
2023-04-15T06:10:38.483Z,5.87
2023-04-15T06:13:04.937Z,5.80
2023-04-15T06:15:31.587Z,5.81
2023-04-15T06:17:57.935Z,5.89
2023-04-15T06:20:24.306Z,6.07
2023-04-15T06:22:50.739Z,6.10
2023-04-15T06:25:17.072Z,6.09
2023-04-15T06:27:43.410Z,6.12
2023-04-15T06:30:10.180Z,5.80
2023-04-15T06:32:36.596Z,5.91
2023-04-15T06:35:03.032Z,5.89
2023-04-15T06:37:29.376Z,5.88
2023-04-15T06:39:55.696Z,5.71
2023-04-15T06:42:22.758Z,5.60
2023-04-15T06:44:49.070Z,5.55
2023-04-15T06:47:15.413Z,5.53
2023-04-15T06:49:41.821Z,5.43
2023-04-15T06:52:08.150Z,5.44
2023-04-15T06:54:34.465Z,5.50
2023-04-15T06:57:00.758Z,5.62
2023-04-15T06:59:27.068Z,5.59
2023-04-15T07:01:53.600Z,5.44
2023-04-15T07:04:20.180Z,5.46
2023-04-15T07:06:46.542Z,5.52
2023-04-15T07:09:12.875Z,5.51
2023-04-15T07:11:39.173Z,5.49
2023-04-15T07:14:05.490Z,5.60
2023-04-15T07:16:31.818Z,5.64
2023-04-15T07:18:58.169Z,5.80
2023-04-15T07:21:25.848Z,5.72
2023-04-15T07:23:52.185Z,5.76
2023-04-15T07:26:18.525Z,5.64
2023-04-15T07:28:44.852Z,5.72
2023-04-15T07:31:11.354Z,5.67
2023-04-15T07:33:37.758Z,5.66
2023-04-15T07:36:04.289Z,5.55
2023-04-15T07:38:30.594Z,5.71
2023-04-15T07:40:56.991Z,5.80
2023-04-15T07:43:23.503Z,5.94
2023-04-15T07:45:49.869Z,5.97
2023-04-15T07:48:16.261Z,5.96
2023-04-15T07:50:42.703Z,6.02
2023-04-15T07:53:08.995Z,6.05
2023-04-15T07:55:35.327Z,6.13
2023-04-15T07:58:01.626Z,6.06
2023-04-15T08:00:27.929Z,6.17
2023-04-15T08:02:54.402Z,6.14
2023-04-15T08:05:21.045Z,6.07
2023-04-15T08:07:47.442Z,6.08
2023-04-15T08:10:14.438Z,6.15
2023-04-15T08:12:40.773Z,6.25
2023-04-15T08:15:07.770Z,6.33
2023-04-15T08:17:34.088Z,6.27
2023-04-15T08:20:00.455Z,6.26
2023-04-15T08:22:26.765Z,6.34
2023-04-15T08:24:53.068Z,6.48
2023-04-15T08:27:19.410Z,6.53
2023-04-15T08:29:45.778Z,6.53
2023-04-15T08:32:12.278Z,6.52
2023-04-15T08:34:38.583Z,6.55
2023-04-15T08:37:04.901Z,6.49
2023-04-15T08:39:31.197Z,6.55
2023-04-15T08:42:02.580Z,6.66
2023-04-15T08:44:34.940Z,6.78
2023-04-15T08:47:02.172Z,6.72
2023-04-15T08:49:29.372Z,6.71
2023-04-15T08:51:59.482Z,7.01
2023-04-15T08:54:26.927Z,7.07
2023-04-15T08:56:53.483Z,7.12
2023-04-15T08:59:21.560Z,7.17
2023-04-15T09:01:50.116Z,7.20
2023-04-15T09:04:17.293Z,7.24
2023-04-15T09:06:43.720Z,7.00
2023-04-15T09:09:10.206Z,7.05
2023-04-15T09:11:36.571Z,6.98
2023-04-15T09:14:02.858Z,6.88
2023-04-15T09:16:29.244Z,6.90
2023-04-15T09:18:55.585Z,6.87
2023-04-15T09:21:21.956Z,6.86
2023-04-15T09:23:55.121Z,6.81
2023-04-15T09:26:34.489Z,6.68
2023-04-15T09:29:05.738Z,6.72
2023-04-15T09:31:32.100Z,6.85
2023-04-15T09:33:58.692Z,6.89
2023-04-15T09:36:25.290Z,6.79
2023-04-15T09:38:59.293Z,6.85
2023-04-15T09:41:27.819Z,6.85
2023-04-15T09:43:54.133Z,6.85
2023-04-15T09:46:20.452Z,6.85
2023-04-15T09:48:47.202Z,6.87
2023-04-15T09:51:13.541Z,6.91
2023-04-15T09:53:39.860Z,6.86
2023-04-15T09:56:06.642Z,6.84
2023-04-15T09:58:34.356Z,6.85
2023-04-15T10:01:02.925Z,6.90
2023-04-15T10:03:31.550Z,6.96
2023-04-15T10:06:00.736Z,7.02
2023-04-15T10:08:29.302Z,6.93
2023-04-15T10:10:55.604Z,7.00
2023-04-15T10:13:24.678Z,7.06
2023-04-15T10:15:59.164Z,7.06
2023-04-15T10:18:27.664Z,7.02
2023-04-15T10:20:55.039Z,7.05
2023-04-15T10:23:23.170Z,7.05
2023-04-15T10:25:52.690Z,7.11
2023-04-15T10:28:20.417Z,7.06
2023-04-15T10:30:47.960Z,7.04
2023-04-15T10:33:15.359Z,7.05
2023-04-15T10:35:42.466Z,7.08
2023-04-15T10:38:35.855Z,7.01
2023-04-15T10:41:21.028Z,7.06
2023-04-15T10:44:01.860Z,7.02
2023-04-15T10:46:34.359Z,7.04
2023-04-15T10:49:07.582Z,7.08
2023-04-15T10:51:33.987Z,7.11
2023-04-15T10:54:00.356Z,7.18
2023-04-15T10:56:28.876Z,7.14
2023-04-15T10:58:55.178Z,7.18
2023-04-15T11:01:22.178Z,7.13
2023-04-15T11:03:49.024Z,7.16
2023-04-15T11:06:15.489Z,7.16
2023-04-15T11:08:58.018Z,7.20
2023-04-15T11:12:02.573Z,7.34
2023-04-15T11:14:28.921Z,7.32
2023-04-15T11:16:55.284Z,7.33
2023-04-15T11:19:21.654Z,7.24
2023-04-15T11:21:48.185Z,7.28
2023-04-15T11:24:24.616Z,7.30
2023-04-15T11:26:51.319Z,7.23
2023-04-15T11:29:18.276Z,7.27
2023-04-15T11:31:47.586Z,7.32
2023-04-15T11:34:22.825Z,7.32
2023-04-15T11:36:49.135Z,7.40
2023-04-15T11:39:15.685Z,7.29
2023-04-15T11:41:42.078Z,7.33
2023-04-15T11:44:18.512Z,7.39
2023-04-15T11:46:45.656Z,7.32
2023-04-15T11:49:12.009Z,7.38
2023-04-15T11:51:38.376Z,7.34
2023-04-15T11:54:04.889Z,7.37
2023-04-15T11:56:31.474Z,7.29
2023-04-15T11:58:59.037Z,7.33
2023-04-15T12:01:39.008Z,7.36
2023-04-15T12:04:16.254Z,7.40
2023-04-15T12:06:42.768Z,7.36
2023-04-15T12:09:13.424Z,7.36
2023-04-15T12:11:42.930Z,7.37
2023-04-15T12:14:29.282Z,7.36
2023-04-15T12:17:04.568Z,7.44
2023-04-15T12:19:39.196Z,7.39
2023-04-15T12:22:06.474Z,7.41
2023-04-15T12:24:34.821Z,7.38
2023-04-15T12:27:06.538Z,7.40
2023-04-15T12:29:34.177Z,7.40
2023-04-15T12:32:11.999Z,7.52
2023-04-15T12:34:52.955Z,7.47
2023-04-15T12:37:19.647Z,7.53
2023-04-15T12:39:47.972Z,7.57
2023-04-15T12:42:15.461Z,7.52
2023-04-15T12:44:42.001Z,7.52
2023-04-15T12:47:09.363Z,7.51
2023-04-15T12:49:36.015Z,7.52
2023-04-15T12:52:03.557Z,7.56
2023-04-15T12:54:30.890Z,7.55
2023-04-15T12:56:58.111Z,7.51
2023-04-15T12:59:24.756Z,7.48
2023-04-15T13:01:51.874Z,7.41
2023-04-15T13:04:19.722Z,7.42
2023-04-15T13:06:46.325Z,7.37
2023-04-15T13:09:12.692Z,7.38
2023-04-15T13:11:39.010Z,7.44
2023-04-15T13:14:07.694Z,7.42
2023-04-15T13:16:35.386Z,7.46
2023-04-15T13:19:03.230Z,7.45
2023-04-15T13:21:30.162Z,7.46
2023-04-15T13:23:56.478Z,7.45
2023-04-15T13:26:22.776Z,7.50
2023-04-15T13:28:49.201Z,7.48
2023-04-15T13:31:15.541Z,7.55
2023-04-15T13:33:41.861Z,7.60
2023-04-15T13:36:08.439Z,7.59
2023-04-15T13:38:34.755Z,7.54
2023-04-15T13:41:01.073Z,7.53
2023-04-15T13:43:27.375Z,7.50
2023-04-15T13:45:53.729Z,7.56
2023-04-15T13:48:20.091Z,7.54
2023-04-15T13:50:46.403Z,7.52
2023-04-15T13:53:12.965Z,7.63
2023-04-15T13:55:40.520Z,7.60
2023-04-15T13:58:07.897Z,7.62
2023-04-15T14:00:34.268Z,7.64
2023-04-15T14:03:00.785Z,7.72
2023-04-15T14:05:27.390Z,7.64
2023-04-15T14:07:53.896Z,7.61
2023-04-15T14:10:20.397Z,7.57
2023-04-15T14:12:46.735Z,7.59
2023-04-15T14:15:13.031Z,7.56
2023-04-15T14:17:39.434Z,7.57
2023-04-15T14:20:07.872Z,7.54
2023-04-15T14:22:34.202Z,7.48
2023-04-15T14:25:00.522Z,7.54
2023-04-15T14:27:26.881Z,7.63
2023-04-15T14:29:53.439Z,7.82
2023-04-15T14:32:20.177Z,7.78
2023-04-15T14:34:46.529Z,7.66
2023-04-15T14:37:12.847Z,7.68
2023-04-15T14:39:39.187Z,7.64
2023-04-15T14:42:05.667Z,7.63
2023-04-15T14:47:03.255Z,7.65
2023-04-15T14:49:29.616Z,7.60
2023-04-15T14:51:55.929Z,7.62
2023-04-15T14:54:22.578Z,7.69
2023-04-15T14:56:49.006Z,7.75
2023-04-15T14:59:15.338Z,7.82
2023-04-15T15:01:41.800Z,7.84
2023-04-15T15:04:10.205Z,7.85
2023-04-15T15:06:36.857Z,7.78
2023-04-15T15:09:03.657Z,7.79
2023-04-15T15:11:30.295Z,7.84
2023-04-15T15:13:56.784Z,7.87
2023-04-15T15:16:23.119Z,8.01
2023-04-15T15:18:50.271Z,7.99
2023-04-15T15:21:16.974Z,8.02
2023-04-15T15:23:43.294Z,8.01
2023-04-15T15:26:09.808Z,7.98
2023-04-15T15:28:36.992Z,7.93
2023-04-15T15:31:03.511Z,7.92
2023-04-15T15:33:30.295Z,7.96
2023-04-15T15:35:57.857Z,7.92
2023-04-15T15:38:24.147Z,7.99
2023-04-15T15:40:50.556Z,7.97
2023-04-15T15:43:16.854Z,8.00
2023-04-15T15:45:43.236Z,8.12
2023-04-15T15:48:09.574Z,8.18
2023-04-15T15:50:35.949Z,8.23
2023-04-15T15:53:02.255Z,8.15
2023-04-15T15:55:28.561Z,8.13
2023-04-15T15:57:54.859Z,8.28
2023-04-15T16:00:21.164Z,8.24
2023-04-15T16:05:16.738Z,8.23
2023-04-15T16:07:43.060Z,8.27
2023-04-15T16:10:09.558Z,8.23
2023-04-15T16:12:35.896Z,8.31
2023-04-15T16:15:02.215Z,8.38
2023-04-15T16:17:28.566Z,8.43
2023-04-15T16:19:57.932Z,8.52
2023-04-15T16:22:27.406Z,8.48
2023-04-15T16:24:53.742Z,8.48
2023-04-15T16:27:20.037Z,8.51
2023-04-15T16:29:46.345Z,8.49
2023-04-15T16:32:12.726Z,8.45
2023-04-15T16:34:39.112Z,8.39
2023-04-15T16:37:05.419Z,8.31
2023-04-15T16:39:31.847Z,8.18
2023-04-15T16:41:59.113Z,8.20
2023-04-15T16:44:25.466Z,8.33
2023-04-15T16:46:51.780Z,8.32
2023-04-15T16:49:18.060Z,8.29
2023-04-15T16:51:44.405Z,8.24
2023-04-15T16:54:10.710Z,8.34
2023-04-15T16:56:37.009Z,8.31
2023-04-15T16:59:03.554Z,8.33
2023-04-15T17:01:30.351Z,8.29
2023-04-15T17:03:56.857Z,8.35
2023-04-15T17:06:23.296Z,8.27
2023-04-15T17:08:49.638Z,8.27
2023-04-15T17:11:15.981Z,8.27
2023-04-15T17:13:42.320Z,8.32
2023-04-15T17:16:08.637Z,8.37
2023-04-15T17:18:35.039Z,8.34
2023-04-15T17:21:01.411Z,8.32
2023-04-15T17:23:27.732Z,8.34
2023-04-15T17:25:54.060Z,8.41
2023-04-15T17:28:20.351Z,8.44
2023-04-15T17:30:46.903Z,8.51
2023-04-15T17:33:58.052Z,8.47
2023-04-15T17:35:59.693Z,8.41
2023-04-15T17:38:26.209Z,8.34
2023-04-15T17:40:52.640Z,8.32
2023-04-15T17:43:19.036Z,8.31
2023-04-15T17:45:45.396Z,8.30
2023-04-15T17:48:11.817Z,8.25
2023-04-15T17:50:38.190Z,8.27
2023-04-15T17:53:04.716Z,8.26
2023-04-15T17:55:32.771Z,8.31
2023-04-15T17:58:00.149Z,8.31
2023-04-15T18:00:26.524Z,8.41
2023-04-15T18:02:52.962Z,8.29
2023-04-15T18:05:19.456Z,8.27
2023-04-15T18:07:45.905Z,8.41
2023-04-15T18:10:12.293Z,8.36
2023-04-15T18:12:38.639Z,8.38
2023-04-15T18:15:05.565Z,8.34
2023-04-15T18:17:32.049Z,8.23
2023-04-15T18:19:58.343Z,8.28
2023-04-15T18:22:24.678Z,8.25
2023-04-15T18:24:51.014Z,8.21
2023-04-15T18:27:17.913Z,8.20
2023-04-15T18:29:44.242Z,8.27
2023-04-15T18:32:10.572Z,8.24
2023-04-15T18:34:37.035Z,8.14
2023-04-15T18:37:03.502Z,8.21
2023-04-15T18:39:29.861Z,8.19
2023-04-15T18:41:56.193Z,8.18
2023-04-15T18:44:22.877Z,8.12
2023-04-15T18:46:49.332Z,8.20
2023-04-15T18:49:15.696Z,8.09
2023-04-15T18:51:42.002Z,8.05
2023-04-15T18:54:08.321Z,7.97
2023-04-15T18:56:34.893Z,7.91
2023-04-15T18:59:10.005Z,8.00
2023-04-15T19:01:49.254Z,8.02
2023-04-15T19:04:15.662Z,8.03
2023-04-15T19:06:42.072Z,8.07
2023-04-15T19:09:08.549Z,8.13
2023-04-15T19:11:34.853Z,8.09
2023-04-15T19:14:01.172Z,8.10
2023-04-15T19:16:27.524Z,8.12
2023-04-15T19:18:53.921Z,8.17
2023-04-15T19:21:20.387Z,8.18
2023-04-15T19:23:46.850Z,8.21
2023-04-15T19:26:13.172Z,8.12
2023-04-15T19:28:39.538Z,8.12
2023-04-15T19:31:06.117Z,8.02
2023-04-15T19:33:32.623Z,8.04
2023-04-15T19:36:04.416Z,8.09
2023-04-15T19:38:31.707Z,8.02
2023-04-15T19:40:58.751Z,8.03
2023-04-15T19:43:25.081Z,8.07
2023-04-15T19:45:52.316Z,8.20
2023-04-15T19:48:19.158Z,8.23
2023-04-15T19:50:45.580Z,8.23
2023-04-15T19:53:12.235Z,8.18
2023-04-15T19:55:38.767Z,8.21
2023-04-15T19:58:05.176Z,8.22
2023-04-15T20:00:31.536Z,8.20
2023-04-15T20:02:58.335Z,8.21
2023-04-15T20:05:24.835Z,8.23
2023-04-15T20:07:51.147Z,8.30
2023-04-15T20:10:21.515Z,8.22
2023-04-15T20:12:52.746Z,8.23
2023-04-15T20:15:19.847Z,8.19
2023-04-15T20:17:46.240Z,8.31
2023-04-15T20:20:12.601Z,8.29
2023-04-15T20:22:38.892Z,8.32
2023-04-15T20:25:05.656Z,8.42
2023-04-15T20:27:31.952Z,8.41
2023-04-15T20:29:58.341Z,8.38
2023-04-15T20:32:24.670Z,8.38
2023-04-15T20:34:50.979Z,8.34
2023-04-15T20:37:17.379Z,8.33
2023-04-15T20:39:43.831Z,8.33
2023-04-15T20:42:10.217Z,8.35
2023-04-15T20:44:37.448Z,8.34
2023-04-15T20:47:05.046Z,8.25
2023-04-15T20:49:35.820Z,8.34
2023-04-15T20:52:03.092Z,8.34
2023-04-15T20:54:29.433Z,8.34
2023-04-15T20:56:56.165Z,8.33
2023-04-15T20:59:22.566Z,8.33
2023-04-15T21:01:48.971Z,8.39
2023-04-15T21:04:15.385Z,8.44
2023-04-15T21:06:41.702Z,8.44
2023-04-15T21:09:08.123Z,8.43
2023-04-15T21:11:53.058Z,8.43
2023-04-15T21:14:20.755Z,8.39
2023-04-15T21:16:47.210Z,8.43
2023-04-15T21:19:13.577Z,8.42
2023-04-15T21:21:40.009Z,8.42
2023-04-15T21:24:06.573Z,8.48
2023-04-15T21:26:33.002Z,8.54
2023-04-15T21:28:59.345Z,8.54
2023-04-15T21:31:25.864Z,8.61
2023-04-15T21:33:52.244Z,8.55
2023-04-15T21:36:18.572Z,8.58
2023-04-15T21:38:44.934Z,8.59
2023-04-15T21:41:11.237Z,8.56
2023-04-15T21:43:37.628Z,8.59
2023-04-15T21:46:24.513Z,8.56
2023-04-15T21:48:50.894Z,8.55
2023-04-15T21:51:17.300Z,8.67
2023-04-15T21:53:43.794Z,8.68
2023-04-15T21:56:10.129Z,8.71
2023-04-15T21:58:36.635Z,8.71
2023-04-15T22:01:04.413Z,8.69
2023-04-15T22:03:32.682Z,8.66
2023-04-15T22:06:00.041Z,8.60
2023-04-15T22:08:26.423Z,8.53
2023-04-15T22:10:52.716Z,8.59
2023-04-15T22:13:19.088Z,8.67
2023-04-15T22:15:45.597Z,8.65
2023-04-15T22:18:13.085Z,8.65
2023-04-15T22:20:39.810Z,8.58
2023-04-15T22:23:06.177Z,8.56
2023-04-15T22:25:32.475Z,8.55
2023-04-15T22:27:58.775Z,8.55
2023-04-15T22:30:25.153Z,8.57
2023-04-15T22:32:51.595Z,8.59
2023-04-15T22:35:18.078Z,8.66
2023-04-15T22:37:44.474Z,8.55
2023-04-15T22:40:11.287Z,8.54
2023-04-15T22:42:37.619Z,8.57
2023-04-15T22:45:04.302Z,8.47
2023-04-15T22:47:30.648Z,8.63
2023-04-15T22:49:57.289Z,8.60
2023-04-15T22:52:30.666Z,8.59
2023-04-15T22:54:58.157Z,8.57
2023-04-15T22:57:24.516Z,8.58
2023-04-15T22:59:50.828Z,8.57
2023-04-15T23:02:17.350Z,8.60
2023-04-15T23:04:43.855Z,8.65
2023-04-15T23:07:10.207Z,8.62
2023-04-15T23:09:36.813Z,8.65
2023-04-15T23:12:03.484Z,8.59
2023-04-15T23:14:30.359Z,8.67
2023-04-15T23:16:59.445Z,8.69
2023-04-15T23:19:25.749Z,8.66
2023-04-15T23:21:52.739Z,8.69
2023-04-15T23:24:19.053Z,8.73
2023-04-15T23:26:45.372Z,8.72
2023-04-15T23:29:11.934Z,8.67
2023-04-15T23:31:38.403Z,8.74
2023-04-15T23:34:04.830Z,8.64
2023-04-15T23:36:31.145Z,8.70
2023-04-15T23:38:57.616Z,8.70
2023-04-15T23:41:24.033Z,8.70
2023-04-15T23:43:50.356Z,8.76
2023-04-15T23:46:16.956Z,8.79
2023-04-15T23:48:43.298Z,8.80
2023-04-15T23:51:09.675Z,8.71
2023-04-15T23:53:36.001Z,8.74
2023-04-15T23:56:02.293Z,8.72
2023-04-15T23:58:28.893Z,8.73
